sensor_id;sensor_type;location;lat;lon;timestamp;temperature;humidity
4584;DHT22;2304;47.606;12.186;2024-01-27T00:02:18;7.50;65.30
4584;DHT22;2304;47.606;12.186;2024-01-27T00:07:21;7.50;64.80
4584;DHT22;2304;47.606;12.186;2024-01-27T00:12:24;7.50;63.80
4584;DHT22;2304;47.606;12.186;2024-01-27T00:17:25;7.40;62.70
4584;DHT22;2304;47.606;12.186;2024-01-27T00:22:30;7.30;63.70
4584;DHT22;2304;47.606;12.186;2024-01-27T00:27:31;7.30;62.80
4584;DHT22;2304;47.606;12.186;2024-01-27T00:32:33;7.30;63.40
4584;DHT22;2304;47.606;12.186;2024-01-27T00:37:36;7.30;63.90
4584;DHT22;2304;47.606;12.186;2024-01-27T00:42:38;7.30;63.80
4584;DHT22;2304;47.606;12.186;2024-01-27T00:47:40;7.30;63.00
4584;DHT22;2304;47.606;12.186;2024-01-27T00:52:43;7.30;62.60
4584;DHT22;2304;47.606;12.186;2024-01-27T00:57:45;7.30;63.00
4584;DHT22;2304;47.606;12.186;2024-01-27T01:02:47;7.30;63.50
4584;DHT22;2304;47.606;12.186;2024-01-27T01:07:50;7.30;63.30
4584;DHT22;2304;47.606;12.186;2024-01-27T01:12:52;7.30;63.60
4584;DHT22;2304;47.606;12.186;2024-01-27T01:17:54;7.30;64.10
4584;DHT22;2304;47.606;12.186;2024-01-27T01:22:57;7.30;65.50
4584;DHT22;2304;47.606;12.186;2024-01-27T01:27:59;7.20;64.30
4584;DHT22;2304;47.606;12.186;2024-01-27T01:33:01;7.20;64.50
4584;DHT22;2304;47.606;12.186;2024-01-27T01:38:04;7.30;65.00
4584;DHT22;2304;47.606;12.186;2024-01-27T01:43:09;7.30;65.00
4584;DHT22;2304;47.606;12.186;2024-01-27T01:48:12;7.30;65.40
4584;DHT22;2304;47.606;12.186;2024-01-27T01:53:15;7.20;66.00
4584;DHT22;2304;47.606;12.186;2024-01-27T01:58:18;7.20;67.30
4584;DHT22;2304;47.606;12.186;2024-01-27T02:03:19;7.20;67.70
4584;DHT22;2304;47.606;12.186;2024-01-27T02:08:23;7.10;68.50
4584;DHT22;2304;47.606;12.186;2024-01-27T02:13:24;7.00;69.20
4584;DHT22;2304;47.606;12.186;2024-01-27T02:18:27;7.10;69.50
4584;DHT22;2304;47.606;12.186;2024-01-27T02:23:31;7.10;69.90
4584;DHT22;2304;47.606;12.186;2024-01-27T02:28:34;7.00;69.60
4584;DHT22;2304;47.606;12.186;2024-01-27T02:33:36;7.00;70.20
4584;DHT22;2304;47.606;12.186;2024-01-27T02:38:38;7.00;70.30
4584;DHT22;2304;47.606;12.186;2024-01-27T02:43:41;6.80;70.10
4584;DHT22;2304;47.606;12.186;2024-01-27T02:48:43;6.90;70.90
4584;DHT22;2304;47.606;12.186;2024-01-27T02:53:45;6.90;71.10
4584;DHT22;2304;47.606;12.186;2024-01-27T02:58:48;6.90;71.20
4584;DHT22;2304;47.606;12.186;2024-01-27T03:03:50;7.00;71.00
4584;DHT22;2304;47.606;12.186;2024-01-27T03:08:52;6.90;71.10
4584;DHT22;2304;47.606;12.186;2024-01-27T03:13:55;6.90;71.30
4584;DHT22;2304;47.606;12.186;2024-01-27T03:18:57;6.90;71.40
4584;DHT22;2304;47.606;12.186;2024-01-27T03:23:59;6.80;71.60
4584;DHT22;2304;47.606;12.186;2024-01-27T03:29:02;6.80;71.70
4584;DHT22;2304;47.606;12.186;2024-01-27T03:34:05;6.80;72.20
4584;DHT22;2304;47.606;12.186;2024-01-27T03:39:07;6.80;72.20
4584;DHT22;2304;47.606;12.186;2024-01-27T03:44:10;6.80;72.30
4584;DHT22;2304;47.606;12.186;2024-01-27T03:49:12;6.80;72.50
4584;DHT22;2304;47.606;12.186;2024-01-27T03:54:14;6.90;72.20
4584;DHT22;2304;47.606;12.186;2024-01-27T03:59:17;6.90;72.10
4584;DHT22;2304;47.606;12.186;2024-01-27T04:04:19;6.90;72.00
4584;DHT22;2304;47.606;12.186;2024-01-27T04:09:21;6.80;72.00
4584;DHT22;2304;47.606;12.186;2024-01-27T04:14:24;6.80;72.30
4584;DHT22;2304;47.606;12.186;2024-01-27T04:19:26;6.80;72.10
4584;DHT22;2304;47.606;12.186;2024-01-27T04:24:28;6.70;71.60
4584;DHT22;2304;47.606;12.186;2024-01-27T04:29:31;6.70;72.10
4584;DHT22;2304;47.606;12.186;2024-01-27T04:34:33;6.70;72.50
4584;DHT22;2304;47.606;12.186;2024-01-27T04:39:35;6.70;72.60
4584;DHT22;2304;47.606;12.186;2024-01-27T04:44:41;6.80;72.90
4584;DHT22;2304;47.606;12.186;2024-01-27T04:49:43;6.70;72.70
4584;DHT22;2304;47.606;12.186;2024-01-27T04:54:44;6.70;72.40
4584;DHT22;2304;47.606;12.186;2024-01-27T04:59:48;6.70;72.90
4584;DHT22;2304;47.606;12.186;2024-01-27T05:04:50;6.70;72.70
4584;DHT22;2304;47.606;12.186;2024-01-27T05:09:52;6.80;72.60
4584;DHT22;2304;47.606;12.186;2024-01-27T05:14:55;6.70;71.80
4584;DHT22;2304;47.606;12.186;2024-01-27T05:19:57;6.70;72.10
4584;DHT22;2304;47.606;12.186;2024-01-27T05:24:59;6.70;71.40
4584;DHT22;2304;47.606;12.186;2024-01-27T05:30:03;6.60;71.70
4584;DHT22;2304;47.606;12.186;2024-01-27T05:35:06;6.50;72.30
4584;DHT22;2304;47.606;12.186;2024-01-27T05:40:09;6.60;71.60
4584;DHT22;2304;47.606;12.186;2024-01-27T05:45:12;6.50;71.80
4584;DHT22;2304;47.606;12.186;2024-01-27T05:50:14;6.50;72.20
4584;DHT22;2304;47.606;12.186;2024-01-27T05:55:16;6.50;72.30
4584;DHT22;2304;47.606;12.186;2024-01-27T06:00:20;6.60;72.10
4584;DHT22;2304;47.606;12.186;2024-01-27T06:05:22;6.70;71.90
4584;DHT22;2304;47.606;12.186;2024-01-27T06:10:23;6.60;71.60
4584;DHT22;2304;47.606;12.186;2024-01-27T06:15:27;6.70;72.00
4584;DHT22;2304;47.606;12.186;2024-01-27T06:20:29;6.70;72.30
4584;DHT22;2304;47.606;12.186;2024-01-27T06:25:30;6.90;72.80
4584;DHT22;2304;47.606;12.186;2024-01-27T06:30:33;6.80;73.10
4584;DHT22;2304;47.606;12.186;2024-01-27T06:35:35;6.60;73.10
4584;DHT22;2304;47.606;12.186;2024-01-27T06:40:37;6.60;72.90
4584;DHT22;2304;47.606;12.186;2024-01-27T06:45:40;6.60;73.10
4584;DHT22;2304;47.606;12.186;2024-01-27T06:50:42;6.50;72.90
4584;DHT22;2304;47.606;12.186;2024-01-27T06:55:44;6.50;73.10
4584;DHT22;2304;47.606;12.186;2024-01-27T07:00:47;6.50;73.30
4584;DHT22;2304;47.606;12.186;2024-01-27T07:05:49;6.30;73.60
4584;DHT22;2304;47.606;12.186;2024-01-27T07:10:51;6.50;73.50
4584;DHT22;2304;47.606;12.186;2024-01-27T07:15:54;6.50;73.30
4584;DHT22;2304;47.606;12.186;2024-01-27T07:20:56;6.50;73.00
4584;DHT22;2304;47.606;12.186;2024-01-27T07:25:59;6.50;73.60
4584;DHT22;2304;47.606;12.186;2024-01-27T07:31:05;6.40;73.60
4584;DHT22;2304;47.606;12.186;2024-01-27T07:36:07;6.30;74.10
4584;DHT22;2304;47.606;12.186;2024-01-27T07:41:09;6.30;74.30
4584;DHT22;2304;47.606;12.186;2024-01-27T07:46:12;6.40;74.50
4584;DHT22;2304;47.606;12.186;2024-01-27T07:51:14;6.40;74.10
4584;DHT22;2304;47.606;12.186;2024-01-27T07:56:16;6.40;74.00
4584;DHT22;2304;47.606;12.186;2024-01-27T08:01:19;6.40;73.50
4584;DHT22;2304;47.606;12.186;2024-01-27T08:06:28;6.40;73.50
4584;DHT22;2304;47.606;12.186;2024-01-27T08:11:30;6.40;73.30
4584;DHT22;2304;47.606;12.186;2024-01-27T08:16:33;6.50;73.40
4584;DHT22;2304;47.606;12.186;2024-01-27T08:21:35;6.60;73.50
4584;DHT22;2304;47.606;12.186;2024-01-27T08:26:37;6.60;73.20
4584;DHT22;2304;47.606;12.186;2024-01-27T08:31:40;6.70;73.10
4584;DHT22;2304;47.606;12.186;2024-01-27T08:36:42;6.80;73.90
4584;DHT22;2304;47.606;12.186;2024-01-27T08:41:44;6.80;72.30
4584;DHT22;2304;47.606;12.186;2024-01-27T08:46:47;6.70;71.80
4584;DHT22;2304;47.606;12.186;2024-01-27T08:51:49;6.80;72.70
4584;DHT22;2304;47.606;12.186;2024-01-27T08:56:51;6.80;73.10
4584;DHT22;2304;47.606;12.186;2024-01-27T09:01:54;6.70;72.80
4584;DHT22;2304;47.606;12.186;2024-01-27T09:06:56;6.80;73.30
4584;DHT22;2304;47.606;12.186;2024-01-27T09:11:58;6.90;73.30
4584;DHT22;2304;47.606;12.186;2024-01-27T09:17:01;7.30;73.90
4584;DHT22;2304;47.606;12.186;2024-01-27T09:22:03;7.40;72.20
4584;DHT22;2304;47.606;12.186;2024-01-27T09:27:05;7.60;70.50
4584;DHT22;2304;47.606;12.186;2024-01-27T09:32:09;7.70;70.90
4584;DHT22;2304;47.606;12.186;2024-01-27T09:37:10;7.70;67.20
4584;DHT22;2304;47.606;12.186;2024-01-27T09:42:13;7.70;65.70
4584;DHT22;2304;47.606;12.186;2024-01-27T09:47:17;7.70;65.40
4584;DHT22;2304;47.606;12.186;2024-01-27T09:52:20;8.00;65.60
4584;DHT22;2304;47.606;12.186;2024-01-27T09:57:22;8.40;66.30
4584;DHT22;2304;47.606;12.186;2024-01-27T10:02:26;8.60;64.60
4584;DHT22;2304;47.606;12.186;2024-01-27T10:07:29;8.70;63.00
4584;DHT22;2304;47.606;12.186;2024-01-27T10:12:31;8.80;62.20
4584;DHT22;2304;47.606;12.186;2024-01-27T10:17:35;9.40;67.20
4584;DHT22;2304;47.606;12.186;2024-01-27T10:22:38;10.00;64.40
4584;DHT22;2304;47.606;12.186;2024-01-27T10:27:40;10.60;62.70
4584;DHT22;2304;47.606;12.186;2024-01-27T10:32:43;11.00;59.60
4584;DHT22;2304;47.606;12.186;2024-01-27T10:37:45;11.50;59.30
4584;DHT22;2304;47.606;12.186;2024-01-27T10:42:51;11.80;58.80
4584;DHT22;2304;47.606;12.186;2024-01-27T10:48:04;12.20;57.30
4584;DHT22;2304;47.606;12.186;2024-01-27T10:53:09;12.30;55.20
4584;DHT22;2304;47.606;12.186;2024-01-27T10:58:14;12.30;54.30
4584;DHT22;2304;47.606;12.186;2024-01-27T11:03:18;12.10;54.90
4584;DHT22;2304;47.606;12.186;2024-01-27T11:08:20;11.80;55.50
4584;DHT22;2304;47.606;12.186;2024-01-27T11:13:25;11.70;53.70
4584;DHT22;2304;47.606;12.186;2024-01-27T11:18:30;11.50;54.70
4584;DHT22;2304;47.606;12.186;2024-01-27T11:23:33;11.30;55.40
4584;DHT22;2304;47.606;12.186;2024-01-27T11:28:36;11.30;56.40
4584;DHT22;2304;47.606;12.186;2024-01-27T11:33:43;11.30;57.10
4584;DHT22;2304;47.606;12.186;2024-01-27T11:38:46;11.20;55.50
4584;DHT22;2304;47.606;12.186;2024-01-27T11:43:51;11.10;55.90
4584;DHT22;2304;47.606;12.186;2024-01-27T11:48:55;11.00;55.60
4584;DHT22;2304;47.606;12.186;2024-01-27T11:53:57;11.30;56.20
4584;DHT22;2304;47.606;12.186;2024-01-27T11:58:59;11.60;56.10
4584;DHT22;2304;47.606;12.186;2024-01-27T12:04:03;11.70;54.80
4584;DHT22;2304;47.606;12.186;2024-01-27T12:09:05;11.40;53.30
4584;DHT22;2304;47.606;12.186;2024-01-27T12:14:12;11.00;53.60
4584;DHT22;2304;47.606;12.186;2024-01-27T12:19:15;10.80;54.50
4584;DHT22;2304;47.606;12.186;2024-01-27T12:24:17;10.60;54.40
4584;DHT22;2304;47.606;12.186;2024-01-27T12:29:20;10.90;56.70
4584;DHT22;2304;47.606;12.186;2024-01-27T12:34:23;11.00;56.00
4584;DHT22;2304;47.606;12.186;2024-01-27T12:39:26;11.30;56.70
4584;DHT22;2304;47.606;12.186;2024-01-27T12:44:28;11.40;55.30
4584;DHT22;2304;47.606;12.186;2024-01-27T12:49:31;11.50;54.90
4584;DHT22;2304;47.606;12.186;2024-01-27T12:54:33;11.70;54.60
4584;DHT22;2304;47.606;12.186;2024-01-27T12:59:35;11.70;55.80
4584;DHT22;2304;47.606;12.186;2024-01-27T13:04:38;11.90;52.90
4584;DHT22;2304;47.606;12.186;2024-01-27T13:09:40;11.90;53.50
4584;DHT22;2304;47.606;12.186;2024-01-27T13:14:42;12.30;53.60
4584;DHT22;2304;47.606;12.186;2024-01-27T13:19:45;12.30;52.10
4584;DHT22;2304;47.606;12.186;2024-01-27T13:24:47;12.50;52.50
4584;DHT22;2304;47.606;12.186;2024-01-27T13:29:49;12.70;51.30
4584;DHT22;2304;47.606;12.186;2024-01-27T13:34:54;12.80;52.20
4584;DHT22;2304;47.606;12.186;2024-01-27T13:39:56;13.30;52.80
4584;DHT22;2304;47.606;12.186;2024-01-27T13:44:58;13.30;49.40
4584;DHT22;2304;47.606;12.186;2024-01-27T13:50:01;13.60;51.60
4584;DHT22;2304;47.606;12.186;2024-01-27T13:55:05;13.50;49.40
4584;DHT22;2304;47.606;12.186;2024-01-27T14:00:08;13.50;50.40
4584;DHT22;2304;47.606;12.186;2024-01-27T14:05:12;13.60;50.10
4584;DHT22;2304;47.606;12.186;2024-01-27T14:10:14;13.50;49.80
4584;DHT22;2304;47.606;12.186;2024-01-27T14:15:16;13.50;50.00
4584;DHT22;2304;47.606;12.186;2024-01-27T14:20:20;13.20;49.60
4584;DHT22;2304;47.606;12.186;2024-01-27T14:25:22;13.00;50.10
4584;DHT22;2304;47.606;12.186;2024-01-27T14:30:24;12.90;50.00
4584;DHT22;2304;47.606;12.186;2024-01-27T14:35:27;12.80;50.30
4584;DHT22;2304;47.606;12.186;2024-01-27T14:40:29;12.90;52.40
4584;DHT22;2304;47.606;12.186;2024-01-27T14:45:32;13.00;51.30
4584;DHT22;2304;47.606;12.186;2024-01-27T14:50:37;13.10;51.80
4584;DHT22;2304;47.606;12.186;2024-01-27T14:55:38;13.30;51.50
4584;DHT22;2304;47.606;12.186;2024-01-27T15:00:40;13.30;51.30
4584;DHT22;2304;47.606;12.186;2024-01-27T15:05:43;13.30;51.10
4584;DHT22;2304;47.606;12.186;2024-01-27T15:10:46;13.20;51.40
4584;DHT22;2304;47.606;12.186;2024-01-27T15:15:48;13.10;51.00
4584;DHT22;2304;47.606;12.186;2024-01-27T15:20:52;12.80;51.30
4584;DHT22;2304;47.606;12.186;2024-01-27T15:25:53;12.60;51.60
4584;DHT22;2304;47.606;12.186;2024-01-27T15:30:55;12.40;52.40
4584;DHT22;2304;47.606;12.186;2024-01-27T15:35:59;12.30;53.30
4584;DHT22;2304;47.606;12.186;2024-01-27T15:41:01;12.20;53.60
4584;DHT22;2304;47.606;12.186;2024-01-27T15:46:06;12.20;53.90
4584;DHT22;2304;47.606;12.186;2024-01-27T15:51:09;12.10;54.00
4584;DHT22;2304;47.606;12.186;2024-01-27T15:56:11;11.90;53.90
4584;DHT22;2304;47.606;12.186;2024-01-27T16:01:13;11.90;54.30
4584;DHT22;2304;47.606;12.186;2024-01-27T16:06:17;11.80;54.70
4584;DHT22;2304;47.606;12.186;2024-01-27T16:11:20;11.70;55.00
4584;DHT22;2304;47.606;12.186;2024-01-27T16:16:21;11.60;54.90
4584;DHT22;2304;47.606;12.186;2024-01-27T16:21:27;11.50;55.10
4584;DHT22;2304;47.606;12.186;2024-01-27T16:26:29;11.40;55.30
4584;DHT22;2304;47.606;12.186;2024-01-27T16:31:30;11.30;55.50
4584;DHT22;2304;47.606;12.186;2024-01-27T16:36:35;11.20;55.50
4584;DHT22;2304;47.606;12.186;2024-01-27T16:41:37;11.10;55.80
4584;DHT22;2304;47.606;12.186;2024-01-27T16:46:39;11.00;56.10
4584;DHT22;2304;47.606;12.186;2024-01-27T16:51:42;10.90;56.50
4584;DHT22;2304;47.606;12.186;2024-01-27T16:56:44;10.90;57.00
4584;DHT22;2304;47.606;12.186;2024-01-27T17:01:46;10.90;56.60
4584;DHT22;2304;47.606;12.186;2024-01-27T17:06:49;10.80;56.60
4584;DHT22;2304;47.606;12.186;2024-01-27T17:11:51;10.60;56.50
4584;DHT22;2304;47.606;12.186;2024-01-27T17:16:53;10.50;57.20
4584;DHT22;2304;47.606;12.186;2024-01-27T17:21:57;10.50;57.30
4584;DHT22;2304;47.606;12.186;2024-01-27T17:26:59;10.40;57.10
4584;DHT22;2304;47.606;12.186;2024-01-27T17:32:01;10.40;57.10
4584;DHT22;2304;47.606;12.186;2024-01-27T17:37:04;10.30;57.20
4584;DHT22;2304;47.606;12.186;2024-01-27T17:42:06;10.20;57.20
4584;DHT22;2304;47.606;12.186;2024-01-27T17:47:08;10.10;57.60
4584;DHT22;2304;47.606;12.186;2024-01-27T17:52:11;10.00;57.80
4584;DHT22;2304;47.606;12.186;2024-01-27T17:57:13;10.00;57.90
4584;DHT22;2304;47.606;12.186;2024-01-27T18:02:15;10.00;57.70
4584;DHT22;2304;47.606;12.186;2024-01-27T18:07:18;9.80;57.50
4584;DHT22;2304;47.606;12.186;2024-01-27T18:12:20;9.60;58.20
4584;DHT22;2304;47.606;12.186;2024-01-27T18:17:22;9.40;58.30
4584;DHT22;2304;47.606;12.186;2024-01-27T18:22:25;9.40;59.20
4584;DHT22;2304;47.606;12.186;2024-01-27T18:27:27;9.50;59.40
4584;DHT22;2304;47.606;12.186;2024-01-27T18:32:29;9.40;59.50
4584;DHT22;2304;47.606;12.186;2024-01-27T18:37:32;9.10;58.90
4584;DHT22;2304;47.606;12.186;2024-01-27T18:42:34;9.20;59.90
4584;DHT22;2304;47.606;12.186;2024-01-27T18:47:35;9.30;59.70
4584;DHT22;2304;47.606;12.186;2024-01-27T18:52:42;9.30;59.20
4584;DHT22;2304;47.606;12.186;2024-01-27T18:57:44;9.20;59.50
4584;DHT22;2304;47.606;12.186;2024-01-27T19:02:46;9.10;59.90
4584;DHT22;2304;47.606;12.186;2024-01-27T19:07:49;9.20;59.80
4584;DHT22;2304;47.606;12.186;2024-01-27T19:12:51;9.20;59.50
4584;DHT22;2304;47.606;12.186;2024-01-27T19:17:53;9.30;59.50
4584;DHT22;2304;47.606;12.186;2024-01-27T19:22:56;9.20;59.50
4584;DHT22;2304;47.606;12.186;2024-01-27T19:27:59;9.20;59.60
4584;DHT22;2304;47.606;12.186;2024-01-27T19:33:01;9.20;59.90
4584;DHT22;2304;47.606;12.186;2024-01-27T19:38:04;8.50;59.00
4584;DHT22;2304;47.606;12.186;2024-01-27T19:43:06;8.10;61.00
4584;DHT22;2304;47.606;12.186;2024-01-27T19:48:08;8.20;62.50
4584;DHT22;2304;47.606;12.186;2024-01-27T19:53:13;8.30;62.30
4584;DHT22;2304;47.606;12.186;2024-01-27T19:58:15;8.50;61.80
4584;DHT22;2304;47.606;12.186;2024-01-27T20:03:17;8.60;61.20
4584;DHT22;2304;47.606;12.186;2024-01-27T20:08:20;8.60;60.60
4584;DHT22;2304;47.606;12.186;2024-01-27T20:13:22;8.30;61.30
4584;DHT22;2304;47.606;12.186;2024-01-27T20:18:24;8.40;61.90
4584;DHT22;2304;47.606;12.186;2024-01-27T20:23:27;8.30;60.20
4584;DHT22;2304;47.606;12.186;2024-01-27T20:28:29;8.10;62.10
4584;DHT22;2304;47.606;12.186;2024-01-27T20:33:30;8.20;62.50
4584;DHT22;2304;47.606;12.186;2024-01-27T20:38:34;8.30;61.90
4584;DHT22;2304;47.606;12.186;2024-01-27T20:43:39;8.30;61.30
4584;DHT22;2304;47.606;12.186;2024-01-27T20:48:42;8.10;63.00
4584;DHT22;2304;47.606;12.186;2024-01-27T20:53:45;8.10;62.10
4584;DHT22;2304;47.606;12.186;2024-01-27T20:58:47;7.70;61.10
4584;DHT22;2304;47.606;12.186;2024-01-27T21:03:49;7.20;62.20
4584;DHT22;2304;47.606;12.186;2024-01-27T21:08:52;6.90;63.40
4584;DHT22;2304;47.606;12.186;2024-01-27T21:13:54;7.10;66.20
4584;DHT22;2304;47.606;12.186;2024-01-27T21:18:56;7.50;64.80
4584;DHT22;2304;47.606;12.186;2024-01-27T21:23:59;7.80;64.00
4584;DHT22;2304;47.606;12.186;2024-01-27T21:29:01;7.90;63.10
4584;DHT22;2304;47.606;12.186;2024-01-27T21:34:06;8.00;62.60
4584;DHT22;2304;47.606;12.186;2024-01-27T21:39:10;7.90;62.20
4584;DHT22;2304;47.606;12.186;2024-01-27T21:44:11;7.80;61.90
4584;DHT22;2304;47.606;12.186;2024-01-27T21:49:13;7.90;62.90
4584;DHT22;2304;47.606;12.186;2024-01-27T21:54:17;7.80;63.00
4584;DHT22;2304;47.606;12.186;2024-01-27T21:59:19;7.80;63.10
4584;DHT22;2304;47.606;12.186;2024-01-27T22:04:21;7.90;62.90
4584;DHT22;2304;47.606;12.186;2024-01-27T22:09:24;7.90;63.10
4584;DHT22;2304;47.606;12.186;2024-01-27T22:14:26;7.80;61.30
4584;DHT22;2304;47.606;12.186;2024-01-27T22:19:28;7.00;61.00
4584;DHT22;2304;47.606;12.186;2024-01-27T22:24:32;6.50;63.60
4584;DHT22;2304;47.606;12.186;2024-01-27T22:29:34;6.50;67.00
4584;DHT22;2304;47.606;12.186;2024-01-27T22:34:35;6.70;65.70
4584;DHT22;2304;47.606;12.186;2024-01-27T22:39:40;6.70;66.20
4584;DHT22;2304;47.606;12.186;2024-01-27T22:44:41;6.90;66.20
4584;DHT22;2304;47.606;12.186;2024-01-27T22:49:43;7.30;65.30
4584;DHT22;2304;47.606;12.186;2024-01-27T22:54:46;7.30;64.60
4584;DHT22;2304;47.606;12.186;2024-01-27T22:59:48;7.50;64.10
4584;DHT22;2304;47.606;12.186;2024-01-27T23:04:50;7.60;63.20
4584;DHT22;2304;47.606;12.186;2024-01-27T23:09:54;7.70;63.00
4584;DHT22;2304;47.606;12.186;2024-01-27T23:14:56;7.60;62.60
4584;DHT22;2304;47.606;12.186;2024-01-27T23:19:59;7.60;62.80
4584;DHT22;2304;47.606;12.186;2024-01-27T23:25:02;7.60;62.40
4584;DHT22;2304;47.606;12.186;2024-01-27T23:30:07;7.60;61.30
4584;DHT22;2304;47.606;12.186;2024-01-27T23:35:10;6.90;61.60
4584;DHT22;2304;47.606;12.186;2024-01-27T23:40:13;6.20;62.40
4584;DHT22;2304;47.606;12.186;2024-01-27T23:45:16;5.40;65.00
4584;DHT22;2304;47.606;12.186;2024-01-27T23:50:18;5.00;66.60
4584;DHT22;2304;47.606;12.186;2024-01-27T23:55:21;4.60;68.00
